Time;durP1;ratioP1;P1;durP2;ratioP2;P2;SDS_P1;SDS_P2;PMS_P1;PMS_P2;Temp;Humidity;BMP_temperature;BMP_pressure;BME280_temperature;BME280_humidity;BME280_pressure;Samples;Min_cycle;Max_cycle;Signal;HPM_P1;HPM_P2
2023/12/06 00:02:20;;;;;;;32.35;16.17;;;;;;;;;;5027635;28;20043;-88
2023/12/06 00:04:46;;;;;;;27.05;13.75;;;;;;;;;;5011307;28;20029;-87
2023/12/06 00:07:12;;;;;;;31.05;15.13;;;;;;;;;;5024789;28;20055;-88
2023/12/06 00:09:38;;;;;;;25.23;12.85;;;;;;;;;;5015860;28;20037;-88
2023/12/06 00:12:04;;;;;;;19.13;10.13;;;;;;;;;;5030321;28;20064;-88
2023/12/06 00:14:30;;;;;;;24.02;11.70;;;;;;;;;;5009583;28;20492;-88
2023/12/06 00:16:56;;;;;;;7.55;4.68;;;;;;;;;;5006703;28;20039;-88
2023/12/06 00:19:23;;;;;;;20.42;9.30;;;;;;;;;;5011354;28;20044;-88
2023/12/06 00:21:49;;;;;;;23.83;13.30;;;;;;;;;;5029991;28;20033;-88
2023/12/06 00:24:15;;;;;;;31.40;15.48;;;;;;;;;;5014412;28;20040;-88
2023/12/06 00:26:43;;;;;;;28.95;14.15;;;;;;;;;;5023457;28;20049;-88
2023/12/06 00:29:09;;;;;;;29.52;13.90;;;;;;;;;;5009627;28;20055;-88
2023/12/06 00:31:35;;;;;;;28.90;15.02;;;;;;;;;;5026584;28;20044;-88
2023/12/06 00:34:01;;;;;;;28.85;13.85;;;;;;;;;;5008900;28;20415;-88
2023/12/06 00:36:27;;;;;;;25.40;12.52;;;;;;;;;;5030818;28;20083;-88
2023/12/06 00:38:53;;;;;;;29.67;15.68;;;;;;;;;;5012920;28;20072;-88
2023/12/06 00:41:19;;;;;;;23.60;11.13;;;;;;;;;;5026096;28;20068;-87
2023/12/06 00:43:47;;;;;;;30.48;15.23;;;;;;;;;;5008846;28;20037;-88
2023/12/06 00:46:13;;;;;;;29.40;13.10;;;;;;;;;;5008645;28;20042;-88
2023/12/06 00:48:39;;;;;;;28.08;14.77;;;;;;;;;;5010156;28;20053;-88
2023/12/06 00:51:05;;;;;;;13.95;6.70;;;;;;;;;;5005050;28;20050;-88
2023/12/06 00:53:31;;;;;;;26.90;12.93;;;;;;;;;;5023521;28;20065;-88
2023/12/06 00:55:58;;;;;;;24.05;12.13;;;;;;;;;;5005108;28;20076;-88
2023/12/06 00:58:24;;;;;;;26.65;12.35;;;;;;;;;;5009204;28;20077;-87
2023/12/06 01:00:50;;;;;;;23.23;11.60;;;;;;;;;;5007114;28;20524;-88
2023/12/06 01:03:16;;;;;;;26.38;12.70;;;;;;;;;;5023767;28;20041;-87
2023/12/06 01:05:42;;;;;;;29.52;14.73;;;;;;;;;;5004965;28;20038;-88
2023/12/06 01:08:08;;;;;;;34.33;15.85;;;;;;;;;;5019984;28;20056;-87
2023/12/06 01:10:34;;;;;;;24.88;11.82;;;;;;;;;;5023810;28;20048;-87
2023/12/06 01:13:00;;;;;;;32.35;15.52;;;;;;;;;;5020577;28;20095;-88
2023/12/06 01:15:26;;;;;;;17.15;9.88;;;;;;;;;;5021880;28;20112;-88
2023/12/06 01:17:52;;;;;;;29.17;13.27;;;;;;;;;;5005548;28;20045;-88
2023/12/06 01:20:18;;;;;;;28.67;13.45;;;;;;;;;;5017652;28;20490;-88
2023/12/06 01:22:44;;;;;;;28.08;13.05;;;;;;;;;;5022438;28;20038;-88
2023/12/06 01:25:10;;;;;;;30.00;15.68;;;;;;;;;;5022229;28;20397;-88
2023/12/06 01:27:36;;;;;;;27.45;12.68;;;;;;;;;;5022725;28;20044;-88
2023/12/06 01:30:04;;;;;;;27.20;13.82;;;;;;;;;;5009883;28;20038;-87
2023/12/06 01:32:30;;;;;;;21.92;10.05;;;;;;;;;;5030726;28;20446;-88
2023/12/06 01:34:56;;;;;;;29.02;12.70;;;;;;;;;;5024189;28;20061;-88
2023/12/06 01:37:22;;;;;;;32.40;15.70;;;;;;;;;;5035185;28;20049;-88
2023/12/06 01:39:48;;;;;;;7.80;4.60;;;;;;;;;;5025308;28;20038;-88
2023/12/06 01:42:14;;;;;;;31.73;16.15;;;;;;;;;;5027921;28;20447;-88
2023/12/06 01:44:40;;;;;;;19.08;10.68;;;;;;;;;;5011445;28;20029;-88
2023/12/06 01:47:06;;;;;;;27.48;13.50;;;;;;;;;;5011377;28;20098;-88
2023/12/06 01:49:33;;;;;;;32.53;14.95;;;;;;;;;;5026810;28;20147;-87
2023/12/06 01:51:59;;;;;;;29.63;13.43;;;;;;;;;;5027298;28;20092;-88
2023/12/06 01:54:26;;;;;;;22.58;10.75;;;;;;;;;;5030158;28;20096;-88
2023/12/06 01:56:53;;;;;;;28.67;12.75;;;;;;;;;;5014291;28;20099;-87
2023/12/06 01:59:19;;;;;;;21.58;12.13;;;;;;;;;;5010604;28;20177;-88
2023/12/06 02:01:46;;;;;;;18.00;9.15;;;;;;;;;;5010773;28;20033;-88
2023/12/06 02:04:12;;;;;;;31.15;14.88;;;;;;;;;;5024800;28;20116;-88
2023/12/06 02:06:38;;;;;;;24.48;12.43;;;;;;;;;;5030859;28;20038;-88
2023/12/06 02:09:06;;;;;;;18.58;9.50;;;;;;;;;;5013121;28;20056;-88
2023/12/06 02:11:32;;;;;;;28.63;12.52;;;;;;;;;;5027652;28;20048;-88
2023/12/06 02:13:58;;;;;;;26.17;13.60;;;;;;;;;;5017273;28;20041;-88
2023/12/06 02:16:24;;;;;;;24.20;11.93;;;;;;;;;;5026699;28;20044;-88
2023/12/06 02:18:50;;;;;;;29.05;13.20;;;;;;;;;;5023124;28;20053;-88
2023/12/06 02:21:16;;;;;;;27.63;14.32;;;;;;;;;;5027807;28;20048;-88
2023/12/06 02:23:43;;;;;;;22.92;11.80;;;;;;;;;;5026831;28;20476;-88
2023/12/06 02:26:09;;;;;;;33.05;14.23;;;;;;;;;;5025335;28;20046;-88
2023/12/06 02:28:35;;;;;;;33.50;15.18;;;;;;;;;;5022168;28;20129;-88
2023/12/06 02:31:01;;;;;;;28.80;13.93;;;;;;;;;;5027248;28;20045;-88
2023/12/06 02:33:27;;;;;;;20.40;10.02;;;;;;;;;;5008049;28;20045;-88
2023/12/06 02:35:58;;;;;;;24.05;11.07;;;;;;;;;;5023095;28;20085;-88
2023/12/06 02:38:24;;;;;;;25.52;10.93;;;;;;;;;;5013423;28;21214;-88
2023/12/06 02:40:51;;;;;;;30.67;14.18;;;;;;;;;;5025546;28;20033;-88
2023/12/06 02:43:17;;;;;;;19.60;11.65;;;;;;;;;;5011984;28;20091;-88
2023/12/06 02:45:44;;;;;;;26.08;11.45;;;;;;;;;;5028668;28;20457;-88
2023/12/06 02:48:10;;;;;;;27.17;14.10;;;;;;;;;;5024257;28;20041;-88
2023/12/06 02:50:36;;;;;;;24.73;11.45;;;;;;;;;;5030187;28;20045;-88
2023/12/06 02:53:02;;;;;;;28.35;14.55;;;;;;;;;;5011901;28;20061;-88
2023/12/06 02:55:28;;;;;;;27.88;13.90;;;;;;;;;;5019959;28;20065;-88
2023/12/06 02:57:54;;;;;;;14.70;8.65;;;;;;;;;;5008613;28;20045;-88
2023/12/06 03:00:20;;;;;;;28.15;13.32;;;;;;;;;;5025016;28;20038;-88
2023/12/06 03:02:46;;;;;;;26.27;12.52;;;;;;;;;;5011551;28;20049;-89
2023/12/06 03:05:12;;;;;;;23.95;11.00;;;;;;;;;;5013009;28;20049;-89
2023/12/06 03:07:38;;;;;;;13.82;7.90;;;;;;;;;;5030898;28;20059;-88
2023/12/06 03:10:05;;;;;;;26.23;13.18;;;;;;;;;;5026553;28;20063;-88
2023/12/06 03:12:31;;;;;;;22.67;11.30;;;;;;;;;;5011171;28;20496;-88
2023/12/06 03:14:57;;;;;;;21.45;10.55;;;;;;;;;;5029044;28;20494;-88
2023/12/06 03:17:23;;;;;;;24.92;12.07;;;;;;;;;;5026092;28;20067;-88
2023/12/06 03:19:49;;;;;;;20.38;9.88;;;;;;;;;;5010892;28;20033;-89
2023/12/06 03:22:15;;;;;;;21.73;10.50;;;;;;;;;;5029178;28;20041;-89
2023/12/06 03:24:41;;;;;;;22.63;11.15;;;;;;;;;;5028326;28;20044;-89
2023/12/06 03:27:07;;;;;;;15.20;8.43;;;;;;;;;;5030468;28;20049;-88
2023/12/06 03:29:33;;;;;;;19.70;8.85;;;;;;;;;;5011834;28;20404;-88
2023/12/06 03:31:59;;;;;;;26.73;12.05;;;;;;;;;;5038816;28;20123;-88
2023/12/06 03:34:25;;;;;;;20.52;10.30;;;;;;;;;;5012574;28;20107;-88
2023/12/06 03:36:51;;;;;;;20.45;10.95;;;;;;;;;;5011086;28;20041;-89
2023/12/06 03:39:17;;;;;;;19.70;9.23;;;;;;;;;;5027212;28;20046;-89
2023/12/06 03:41:43;;;;;;;16.98;9.15;;;;;;;;;;5027627;28;20029;-89
2023/12/06 03:44:09;;;;;;;24.10;11.65;;;;;;;;;;5026663;28;20076;-89
2023/12/06 03:46:35;;;;;;;21.88;11.40;;;;;;;;;;5027670;28;20045;-89
2023/12/06 03:49:02;;;;;;;19.40;10.75;;;;;;;;;;5012562;28;20127;-89
2023/12/06 03:51:28;;;;;;;19.75;9.60;;;;;;;;;;5009691;28;20042;-89
2023/12/06 03:53:55;;;;;;;20.67;9.18;;;;;;;;;;5021388;28;20048;-89
2023/12/06 03:56:21;;;;;;;16.92;8.35;;;;;;;;;;5021964;28;20041;-90
2023/12/06 03:58:47;;;;;;;18.02;8.15;;;;;;;;;;5013542;28;20047;-90
2023/12/06 04:01:13;;;;;;;23.27;12.13;;;;;;;;;;5022933;28;20455;-90
2023/12/06 04:03:42;;;;;;;20.25;10.30;;;;;;;;;;5010748;28;20032;-90
2023/12/06 04:06:08;;;;;;;25.83;13.60;;;;;;;;;;5005510;28;20048;-90
2023/12/06 04:08:34;;;;;;;17.00;9.65;;;;;;;;;;5010703;28;20400;-90
2023/12/06 04:11:01;;;;;;;21.33;10.52;;;;;;;;;;5012921;28;20208;-90
2023/12/06 04:13:27;;;;;;;19.88;10.27;;;;;;;;;;5011567;28;20086;-90
2023/12/06 04:15:54;;;;;;;20.77;10.57;;;;;;;;;;5009429;28;20278;-90
2023/12/06 04:18:20;;;;;;;19.85;9.65;;;;;;;;;;5029594;28;20040;-90
2023/12/06 04:20:46;;;;;;;16.52;8.57;;;;;;;;;;5010171;28;20037;-91
2023/12/06 04:23:12;;;;;;;21.38;11.98;;;;;;;;;;5011264;28;20047;-91
2023/12/06 04:25:39;;;;;;;17.52;9.95;;;;;;;;;;5012487;28;20037;-90
2023/12/06 04:28:05;;;;;;;21.52;11.48;;;;;;;;;;5008462;28;20065;-91
2023/12/06 04:30:31;;;;;;;19.67;9.52;;;;;;;;;;5009628;28;20044;-91
2023/12/06 04:32:57;;;;;;;19.83;10.48;;;;;;;;;;5011245;28;20045;-91
2023/12/06 04:35:23;;;;;;;23.25;10.55;;;;;;;;;;5033430;28;20032;-91
2023/12/06 04:37:49;;;;;;;21.20;11.82;;;;;;;;;;5010767;28;20047;-90
2023/12/06 04:40:15;;;;;;;22.38;11.13;;;;;;;;;;5015305;28;20040;-91
2023/12/06 04:42:41;;;;;;;18.08;10.60;;;;;;;;;;5005551;28;20040;-91
2023/12/06 04:45:07;;;;;;;17.63;9.38;;;;;;;;;;5027676;28;20040;-91
2023/12/06 04:47:33;;;;;;;18.27;10.32;;;;;;;;;;5010339;28;20057;-91
2023/12/06 04:49:59;;;;;;;17.17;7.75;;;;;;;;;;5010246;28;20063;-91
2023/12/06 04:52:25;;;;;;;15.82;8.10;;;;;;;;;;5011221;28;20037;-90
2023/12/06 04:54:51;;;;;;;17.67;8.95;;;;;;;;;;5008271;28;20123;-91
2023/12/06 04:57:17;;;;;;;14.32;7.82;;;;;;;;;;5007366;28;20599;-91
2023/12/06 04:59:44;;;;;;;12.25;6.85;;;;;;;;;;5011149;28;20116;-91
2023/12/06 05:02:10;;;;;;;18.65;10.10;;;;;;;;;;5010201;28;20464;-91
2023/12/06 05:04:36;;;;;;;21.73;10.52;;;;;;;;;;5005539;28;20543;-90
2023/12/06 05:07:02;;;;;;;13.85;7.60;;;;;;;;;;5009051;28;20102;-91
2023/12/06 05:09:28;;;;;;;18.55;10.48;;;;;;;;;;5012180;28;20044;-90
2023/12/06 05:11:54;;;;;;;15.68;7.45;;;;;;;;;;5010663;28;20036;-91
2023/12/06 05:14:20;;;;;;;17.05;10.07;;;;;;;;;;5024950;28;20124;-91
2023/12/06 05:16:46;;;;;;;17.33;9.57;;;;;;;;;;5008819;28;20171;-90
2023/12/06 05:19:12;;;;;;;15.25;9.02;;;;;;;;;;5010654;28;20038;-91
2023/12/06 05:21:38;;;;;;;13.27;7.45;;;;;;;;;;5007276;28;20040;-91
2023/12/06 05:24:04;;;;;;;17.95;10.57;;;;;;;;;;5009581;28;20044;-90
2023/12/06 05:26:30;;;;;;;15.98;7.38;;;;;;;;;;5029587;28;20438;-90
2023/12/06 05:28:58;;;;;;;15.77;8.88;;;;;;;;;;5028712;28;20037;-90
2023/12/06 05:31:24;;;;;;;15.10;8.70;;;;;;;;;;5010146;28;20049;-90
2023/12/06 05:33:50;;;;;;;11.25;7.28;;;;;;;;;;5010038;28;20048;-90
2023/12/06 05:36:16;;;;;;;18.67;10.70;;;;;;;;;;5007396;28;20045;-90
2023/12/06 05:38:42;;;;;;;18.17;10.32;;;;;;;;;;5011945;28;20554;-90
2023/12/06 05:41:08;;;;;;;15.35;9.30;;;;;;;;;;5024563;28;20037;-90
2023/12/06 05:43:34;;;;;;;11.57;6.65;;;;;;;;;;5006511;28;20567;-90
2023/12/06 05:46:00;;;;;;;16.30;9.60;;;;;;;;;;5026569;28;20097;-90
2023/12/06 05:48:26;;;;;;;13.63;8.32;;;;;;;;;;5007387;28;20061;-90
2023/12/06 05:50:52;;;;;;;15.73;7.65;;;;;;;;;;5003328;28;20049;-90
2023/12/06 05:53:18;;;;;;;14.45;8.30;;;;;;;;;;5006875;28;20472;-90
2023/12/06 05:55:44;;;;;;;13.07;8.18;;;;;;;;;;5005850;28;20049;-90
2023/12/06 05:58:10;;;;;;;13.30;7.43;;;;;;;;;;5007651;28;20038;-90
2023/12/06 06:00:36;;;;;;;13.80;8.05;;;;;;;;;;5003644;28;20038;-89
2023/12/06 06:03:02;;;;;;;13.43;7.68;;;;;;;;;;5008912;28;20033;-90
2023/12/06 06:05:28;;;;;;;9.15;5.60;;;;;;;;;;5005490;28;20034;-90
2023/12/06 06:07:55;;;;;;;14.43;7.82;;;;;;;;;;5020707;28;20052;-90
2023/12/06 06:10:21;;;;;;;11.20;5.43;;;;;;;;;;5021379;28;20502;-88
2023/12/06 06:12:47;;;;;;;12.02;6.97;;;;;;;;;;5020363;28;20040;-87
2023/12/06 06:15:13;;;;;;;16.33;8.23;;;;;;;;;;5026106;28;20064;-87
2023/12/06 06:17:39;;;;;;;13.68;7.28;;;;;;;;;;5014943;28;20037;-89
2023/12/06 06:20:06;;;;;;;12.60;6.65;;;;;;;;;;5027026;28;20120;-88
2023/12/06 06:22:32;;;;;;;15.40;7.70;;;;;;;;;;5009897;28;20091;-87
2023/12/06 06:24:57;;;;;;;12.45;6.70;;;;;;;;;;5025626;28;20443;-87
2023/12/06 06:27:23;;;;;;;13.95;7.88;;;;;;;;;;5027442;28;20052;-86
2023/12/06 06:29:49;;;;;;;12.20;7.03;;;;;;;;;;5024918;28;20064;-86
2023/12/06 06:32:15;;;;;;;13.23;7.63;;;;;;;;;;5013411;28;20501;-87
2023/12/06 06:34:42;;;;;;;13.77;7.50;;;;;;;;;;5011221;28;20040;-86
2023/12/06 06:37:09;;;;;;;17.70;8.80;;;;;;;;;;5029125;28;20068;-85
2023/12/06 06:39:35;;;;;;;16.92;9.85;;;;;;;;;;5031145;28;20037;-84
2023/12/06 06:42:01;;;;;;;15.18;9.20;;;;;;;;;;5032810;28;20036;-85
2023/12/06 06:44:29;;;;;;;13.30;7.15;;;;;;;;;;5028123;28;20045;-85
2023/12/06 06:46:55;;;;;;;12.60;8.45;;;;;;;;;;5014217;28;20046;-84
2023/12/06 06:49:21;;;;;;;15.38;8.10;;;;;;;;;;5019950;28;20531;-84
2023/12/06 06:51:47;;;;;;;13.43;7.15;;;;;;;;;;5033329;28;20049;-83
2023/12/06 06:54:13;;;;;;;16.17;7.50;;;;;;;;;;5034531;28;20057;-83
2023/12/06 06:56:39;;;;;;;16.48;8.80;;;;;;;;;;5033577;28;20037;-84
2023/12/06 06:59:05;;;;;;;14.20;7.00;;;;;;;;;;5038899;28;20068;-83
2023/12/06 07:01:31;;;;;;;12.82;7.15;;;;;;;;;;5034368;28;20042;-84
2023/12/06 07:03:57;;;;;;;14.98;8.88;;;;;;;;;;5028965;28;20629;-84
2023/12/06 07:06:23;;;;;;;13.43;7.55;;;;;;;;;;5034054;28;20046;-88
2023/12/06 07:08:52;;;;;;;15.48;9.55;;;;;;;;;;5027952;28;20500;-86
2023/12/06 07:11:18;;;;;;;13.77;9.00;;;;;;;;;;5024572;28;20065;-86
2023/12/06 07:13:44;;;;;;;11.18;6.53;;;;;;;;;;5024453;28;20041;-86
2023/12/06 07:16:10;;;;;;;14.63;7.82;;;;;;;;;;5025043;28;20449;-85
2023/12/06 07:18:36;;;;;;;19.15;9.93;;;;;;;;;;5008903;28;20042;-86
2023/12/06 07:21:03;;;;;;;7.75;4.43;;;;;;;;;;5012789;28;20033;-85
2023/12/06 07:23:29;;;;;;;12.10;7.40;;;;;;;;;;5023684;28;20049;-85
2023/12/06 07:25:55;;;;;;;13.40;7.80;;;;;;;;;;5027341;28;20389;-85
2023/12/06 07:28:22;;;;;;;14.05;8.07;;;;;;;;;;5029994;28;20041;-85
2023/12/06 07:30:48;;;;;;;12.80;8.40;;;;;;;;;;5032960;28;20095;-85
2023/12/06 07:33:14;;;;;;;14.90;8.35;;;;;;;;;;5024519;28;20448;-85
2023/12/06 07:35:40;;;;;;;15.25;9.60;;;;;;;;;;5027213;28;20038;-86
2023/12/06 07:38:09;;;;;;;13.38;7.63;;;;;;;;;;5025725;28;20412;-86
2023/12/06 07:40:35;;;;;;;15.60;8.18;;;;;;;;;;5004852;28;20041;-86
2023/12/06 07:43:01;;;;;;;16.40;9.57;;;;;;;;;;5020406;28;20042;-85
2023/12/06 07:45:27;;;;;;;15.38;8.15;;;;;;;;;;5013766;28;20085;-85
2023/12/06 07:47:53;;;;;;;14.68;7.93;;;;;;;;;;5027001;28;20119;-84
2023/12/06 07:50:22;;;;;;;15.30;8.32;;;;;;;;;;5025504;28;20054;-84
2023/12/06 07:52:50;;;;;;;18.00;10.77;;;;;;;;;;5027071;28;20063;-84
2023/12/06 07:55:16;;;;;;;12.40;7.65;;;;;;;;;;5026840;28;20058;-86
2023/12/06 07:57:42;;;;;;;13.70;7.68;;;;;;;;;;5020944;28;20087;-84
2023/12/06 08:00:11;;;;;;;14.98;9.60;;;;;;;;;;5016352;28;20052;-84
2023/12/06 08:02:41;;;;;;;8.38;5.47;;;;;;;;;;5031669;28;20037;-84
2023/12/06 08:05:09;;;;;;;14.95;9.45;;;;;;;;;;5028021;28;20056;-83
2023/12/06 08:07:36;;;;;;;14.82;8.25;;;;;;;;;;5025962;28;20493;-83
2023/12/06 08:10:08;;;;;;;14.35;8.40;;;;;;;;;;5037061;28;20041;-84
2023/12/06 08:12:34;;;;;;;12.38;8.45;;;;;;;;;;5014644;28;20241;-85
2023/12/06 08:15:00;;;;;;;14.32;7.78;;;;;;;;;;5029355;28;20038;-84
2023/12/06 08:17:26;;;;;;;12.65;7.43;;;;;;;;;;5030874;28;20083;-84
2023/12/06 08:19:52;;;;;;;14.80;8.57;;;;;;;;;;5031716;28;20125;-84
2023/12/06 08:22:19;;;;;;;15.18;8.05;;;;;;;;;;5040993;28;20038;-84
2023/12/06 08:24:45;;;;;;;13.55;7.40;;;;;;;;;;5037568;28;20071;-85
2023/12/06 08:27:11;;;;;;;13.80;7.70;;;;;;;;;;5033021;28;20053;-84
2023/12/06 08:29:38;;;;;;;11.65;6.47;;;;;;;;;;5026794;28;20038;-85
2023/12/06 08:32:04;;;;;;;13.02;8.63;;;;;;;;;;5027796;28;20412;-83
2023/12/06 08:34:30;;;;;;;11.40;7.20;;;;;;;;;;5040078;28;20056;-83
2023/12/06 08:36:56;;;;;;;11.30;7.72;;;;;;;;;;5032783;28;20045;-83
2023/12/06 08:39:22;;;;;;;11.10;6.63;;;;;;;;;;5013899;28;20050;-83
2023/12/06 08:41:51;;;;;;;11.88;7.47;;;;;;;;;;5030424;28;20091;-84
2023/12/06 08:44:17;;;;;;;12.43;7.80;;;;;;;;;;5034112;28;20046;-83
2023/12/06 08:46:43;;;;;;;12.68;6.30;;;;;;;;;;5037444;28;20045;-83
2023/12/06 08:49:09;;;;;;;12.13;7.00;;;;;;;;;;5050427;28;20088;-83
2023/12/06 08:51:35;;;;;;;11.65;7.28;;;;;;;;;;5038411;28;20088;-83
2023/12/06 08:54:01;;;;;;;15.43;7.32;;;;;;;;;;5038342;28;20041;-83
2023/12/06 08:56:27;;;;;;;13.13;7.78;;;;;;;;;;5050483;28;20043;-83
2023/12/06 08:58:53;;;;;;;14.63;7.88;;;;;;;;;;5056973;28;20040;-83
2023/12/06 09:01:19;;;;;;;11.70;7.40;;;;;;;;;;5030971;28;20060;-83
2023/12/06 09:03:45;;;;;;;10.73;5.60;;;;;;;;;;5030313;28;20038;-83
2023/12/06 09:06:11;;;;;;;12.35;6.95;;;;;;;;;;5010915;28;20041;-84
2023/12/06 09:08:38;;;;;;;10.10;6.70;;;;;;;;;;5029943;28;20037;-85
2023/12/06 09:11:04;;;;;;;14.07;8.25;;;;;;;;;;5025881;28;20045;-83
2023/12/06 09:13:30;;;;;;;14.65;7.10;;;;;;;;;;5012405;28;20037;-85
2023/12/06 09:15:56;;;;;;;10.13;7.05;;;;;;;;;;5024549;28;20040;-84
2023/12/06 09:18:22;;;;;;;10.95;6.50;;;;;;;;;;5027180;28;20036;-84
2023/12/06 09:20:48;;;;;;;10.95;7.30;;;;;;;;;;5033631;28;20090;-84
2023/12/06 09:23:14;;;;;;;10.38;6.60;;;;;;;;;;5008717;28;20493;-85
2023/12/06 09:25:40;;;;;;;13.07;7.55;;;;;;;;;;5007820;28;20037;-85
2023/12/06 09:28:06;;;;;;;9.25;6.30;;;;;;;;;;5024459;28;20488;-86
2023/12/06 09:30:32;;;;;;;6.72;4.65;;;;;;;;;;5024033;28;20514;-86
2023/12/06 09:32:58;;;;;;;11.07;6.68;;;;;;;;;;5005739;28;20037;-85
2023/12/06 09:35:24;;;;;;;12.75;7.47;;;;;;;;;;5042210;28;20041;-85
2023/12/06 09:37:50;;;;;;;12.32;6.50;;;;;;;;;;5045666;28;20036;-86
2023/12/06 09:40:16;;;;;;;14.48;8.70;;;;;;;;;;5023145;28;20373;-84
2023/12/06 09:42:44;;;;;;;8.95;5.53;;;;;;;;;;5031523;28;20041;-86
2023/12/06 09:45:10;;;;;;;11.35;6.72;;;;;;;;;;5025668;28;20046;-87
2023/12/06 09:47:36;;;;;;;11.10;6.25;;;;;;;;;;5028221;28;20044;-87
2023/12/06 09:50:03;;;;;;;10.75;6.85;;;;;;;;;;5022454;28;20102;-87
2023/12/06 09:52:29;;;;;;;10.82;6.70;;;;;;;;;;5010330;28;20024;-87
2023/12/06 09:54:56;;;;;;;13.57;7.85;;;;;;;;;;5015738;28;20037;-87
2023/12/06 09:57:22;;;;;;;12.65;7.63;;;;;;;;;;5008289;28;20040;-87
2023/12/06 09:59:48;;;;;;;11.93;8.25;;;;;;;;;;5012277;28;20037;-87
2023/12/06 10:02:14;;;;;;;13.43;8.90;;;;;;;;;;5029332;28;20511;-87
2023/12/06 10:04:40;;;;;;;9.20;4.88;;;;;;;;;;5025434;28;20044;-87
2023/12/06 10:07:07;;;;;;;14.85;8.95;;;;;;;;;;5027199;28;20614;-87
2023/12/06 10:09:33;;;;;;;10.35;7.25;;;;;;;;;;5024835;28;20056;-87
2023/12/06 10:12:09;;;;;;;13.23;7.85;;;;;;;;;;5011936;28;20462;-87
2023/12/06 10:14:35;;;;;;;11.13;7.38;;;;;;;;;;5029571;28;20174;-87
2023/12/06 10:17:02;;;;;;;11.05;7.07;;;;;;;;;;5010951;28;20132;-87
2023/12/06 10:19:29;;;;;;;13.82;8.20;;;;;;;;;;5028634;28;20405;-87
2023/12/06 10:21:57;;;;;;;12.73;7.45;;;;;;;;;;5009414;28;20461;-87
2023/12/06 10:24:24;;;;;;;10.70;6.75;;;;;;;;;;5025721;28;20094;-87
2023/12/06 10:27:00;;;;;;;10.70;6.70;;;;;;;;;;5014053;28;20049;-86
2023/12/06 10:29:26;;;;;;;11.18;5.95;;;;;;;;;;5033453;28;20522;-86
2023/12/06 10:31:52;;;;;;;9.80;6.57;;;;;;;;;;5030291;28;20326;-85
2023/12/06 10:34:19;;;;;;;11.75;7.28;;;;;;;;;;5027799;28;20037;-86
2023/12/06 10:36:46;;;;;;;9.25;6.68;;;;;;;;;;5027403;28;20037;-87
2023/12/06 10:39:13;;;;;;;9.73;6.45;;;;;;;;;;5031106;28;20037;-86
2023/12/06 10:41:42;;;;;;;15.13;7.65;;;;;;;;;;5028173;28;20128;-85
2023/12/06 10:44:09;;;;;;;10.18;6.18;;;;;;;;;;5016762;28;20088;-86
2023/12/06 10:46:36;;;;;;;11.73;7.78;;;;;;;;;;5028529;28;20066;-85
2023/12/06 10:49:02;;;;;;;9.93;6.28;;;;;;;;;;5032463;28;20057;-86
2023/12/06 10:51:29;;;;;;;8.93;5.70;;;;;;;;;;5025950;28;20068;-87
2023/12/06 10:53:57;;;;;;;11.63;7.38;;;;;;;;;;5044404;28;20128;-85
2023/12/06 10:56:26;;;;;;;12.27;7.50;;;;;;;;;;5008481;28;20068;-86
2023/12/06 10:58:52;;;;;;;13.18;8.07;;;;;;;;;;5047472;28;20045;-85
2023/12/06 11:01:19;;;;;;;11.55;7.97;;;;;;;;;;5046221;28;20448;-87
2023/12/06 11:03:44;;;;;;;12.00;6.82;;;;;;;;;;5031978;28;20369;-85
2023/12/06 11:06:23;;;;;;;10.20;6.43;;;;;;;;;;5029494;28;20053;-85
2023/12/06 11:08:55;;;;;;;12.73;7.90;;;;;;;;;;5020900;28;20033;-85
2023/12/06 11:11:30;;;;;;;15.57;8.85;;;;;;;;;;5046656;28;20144;-86
2023/12/06 11:14:02;;;;;;;12.63;7.47;;;;;;;;;;5014918;28;20037;-87
2023/12/06 11:16:47;;;;;;;12.73;7.50;;;;;;;;;;5029033;28;20088;-86
2023/12/06 11:19:14;;;;;;;13.45;7.18;;;;;;;;;;5022900;28;20098;-87
2023/12/06 11:21:40;;;;;;;10.35;6.82;;;;;;;;;;5023617;28;20443;-86
2023/12/06 11:24:10;;;;;;;12.02;8.25;;;;;;;;;;5040876;28;20124;-86
2023/12/06 11:26:36;;;;;;;13.35;7.78;;;;;;;;;;5027047;28;20048;-86
2023/12/06 11:29:03;;;;;;;15.32;8.30;;;;;;;;;;5032393;28;20113;-85
2023/12/06 11:31:37;;;;;;;11.55;7.82;;;;;;;;;;5034483;28;20074;-85
2023/12/06 11:34:05;;;;;;;14.48;7.70;;;;;;;;;;5026631;28;20389;-84
2023/12/06 11:36:31;;;;;;;11.70;6.85;;;;;;;;;;5031485;28;20045;-84
2023/12/06 11:38:57;;;;;;;16.17;8.05;;;;;;;;;;5026791;28;20132;-83
2023/12/06 11:41:23;;;;;;;14.88;8.20;;;;;;;;;;5035717;28;20514;-84
2023/12/06 11:43:50;;;;;;;10.38;6.68;;;;;;;;;;5030902;28;20125;-83
2023/12/06 11:46:16;;;;;;;15.68;9.25;;;;;;;;;;5032612;28;20051;-83
2023/12/06 11:48:45;;;;;;;11.90;7.68;;;;;;;;;;5032549;28;20060;-83
2023/12/06 11:51:19;;;;;;;10.90;7.45;;;;;;;;;;5025454;28;20062;-83
2023/12/06 11:53:45;;;;;;;12.70;7.93;;;;;;;;;;5025388;28;20076;-84
2023/12/06 11:56:11;;;;;;;13.30;8.23;;;;;;;;;;5011714;28;20633;-83
2023/12/06 11:58:38;;;;;;;11.70;7.72;;;;;;;;;;5027804;28;20068;-85
2023/12/06 12:01:04;;;;;;;13.05;8.65;;;;;;;;;;5031940;28;20140;-84
2023/12/06 12:03:34;;;;;;;10.75;6.90;;;;;;;;;;5026747;28;20049;-84
2023/12/06 12:06:00;;;;;;;14.38;9.00;;;;;;;;;;5016739;28;20045;-83
2023/12/06 12:08:28;;;;;;;11.52;7.50;;;;;;;;;;5025194;28;20029;-84
2023/12/06 12:10:54;;;;;;;10.75;6.38;;;;;;;;;;5029365;28;20049;-84
2023/12/06 12:13:25;;;;;;;11.23;6.55;;;;;;;;;;5024936;28;20029;-85
2023/12/06 12:16:00;;;;;;;12.68;9.55;;;;;;;;;;5025267;28;20045;-87
2023/12/06 12:18:26;;;;;;;11.35;6.53;;;;;;;;;;5011567;28;20489;-84
2023/12/06 12:20:52;;;;;;;9.15;5.75;;;;;;;;;;5022426;28;20034;-85
2023/12/06 12:23:18;;;;;;;11.10;7.18;;;;;;;;;;5027790;28;20120;-85
2023/12/06 12:25:48;;;;;;;9.30;5.80;;;;;;;;;;5020256;28;20129;-85
2023/12/06 12:28:17;;;;;;;13.23;7.47;;;;;;;;;;5000431;28;20042;-85
2023/12/06 12:30:44;;;;;;;11.05;6.78;;;;;;;;;;5022967;28;20085;-85
2023/12/06 12:33:11;;;;;;;9.02;6.05;;;;;;;;;;5045003;28;20046;-85
2023/12/06 12:35:37;;;;;;;10.27;6.20;;;;;;;;;;5019555;28;20037;-85
2023/12/06 12:38:03;;;;;;;8.10;5.60;;;;;;;;;;5021932;28;20045;-85
2023/12/06 12:40:29;;;;;;;10.95;7.63;;;;;;;;;;5020766;28;20045;-85
2023/12/06 12:42:55;;;;;;;10.50;6.55;;;;;;;;;;5007606;28;20033;-85
2023/12/06 12:45:21;;;;;;;11.27;6.30;;;;;;;;;;5023456;28;20041;-85
2023/12/06 12:47:47;;;;;;;9.43;6.40;;;;;;;;;;5024671;28;20049;-85
2023/12/06 12:50:21;;;;;;;10.88;7.07;;;;;;;;;;5021209;28;20141;-84
2023/12/06 12:52:49;;;;;;;7.88;6.60;;;;;;;;;;5024348;28;20034;-84
2023/12/06 12:55:16;;;;;;;9.80;5.32;;;;;;;;;;5023489;28;20546;-85
2023/12/06 12:57:44;;;;;;;11.68;6.50;;;;;;;;;;5018255;28;20046;-85
2023/12/06 13:00:16;;;;;;;11.93;6.35;;;;;;;;;;5006661;28;20083;-85
2023/12/06 13:02:42;;;;;;;7.07;5.18;;;;;;;;;;5022686;28;20089;-85
2023/12/06 13:05:09;;;;;;;9.48;6.60;;;;;;;;;;5025367;28;20468;-85
2023/12/06 13:07:35;;;;;;;10.07;6.18;;;;;;;;;;5004860;28;20049;-85
2023/12/06 13:10:10;;;;;;;8.30;5.60;;;;;;;;;;5026397;28;20033;-85
2023/12/06 13:12:36;;;;;;;6.47;4.88;;;;;;;;;;5026806;28;20124;-84
2023/12/06 13:15:02;;;;;;;6.43;5.13;;;;;;;;;;5020217;28;20121;-85
2023/12/06 13:17:28;;;;;;;9.88;6.25;;;;;;;;;;5025849;28;20080;-85
2023/12/06 13:19:54;;;;;;;8.63;4.90;;;;;;;;;;5006027;28;20405;-84
2023/12/06 13:22:21;;;;;;;9.32;7.07;;;;;;;;;;5025450;28;20049;-84
2023/12/06 13:24:47;;;;;;;12.65;7.22;;;;;;;;;;5024694;28;20072;-84
2023/12/06 13:27:13;;;;;;;13.02;7.20;;;;;;;;;;5009421;28;20141;-84
2023/12/06 13:29:39;;;;;;;4.10;3.05;;;;;;;;;;5029179;28;20052;-85
2023/12/06 13:32:05;;;;;;;7.78;4.97;;;;;;;;;;5007465;28;20444;-85
2023/12/06 13:34:31;;;;;;;8.98;4.72;;;;;;;;;;5022159;28;20041;-85
2023/12/06 13:36:57;;;;;;;8.38;6.22;;;;;;;;;;5022254;28;20041;-86
2023/12/06 13:39:26;;;;;;;10.73;6.95;;;;;;;;;;5004142;28;20046;-86
2023/12/06 13:41:53;;;;;;;14.10;7.70;;;;;;;;;;5017947;28;20052;-86
2023/12/06 13:44:19;;;;;;;10.55;6.30;;;;;;;;;;5020501;28;20393;-86
2023/12/06 13:46:45;;;;;;;9.32;5.35;;;;;;;;;;5019949;28;20038;-86
2023/12/06 13:49:11;;;;;;;10.57;6.18;;;;;;;;;;5020858;28;20061;-86
2023/12/06 13:51:40;;;;;;;7.85;5.85;;;;;;;;;;5022233;28;20037;-86
2023/12/06 13:54:06;;;;;;;8.30;6.03;;;;;;;;;;5021845;28;20052;-86
2023/12/06 13:56:32;;;;;;;8.60;5.65;;;;;;;;;;5025844;28;20049;-86
2023/12/06 13:58:58;;;;;;;10.73;6.22;;;;;;;;;;5025114;28;20496;-86
2023/12/06 14:01:24;;;;;;;8.65;5.38;;;;;;;;;;5005637;28;20120;-87
2023/12/06 14:03:55;;;;;;;6.68;5.53;;;;;;;;;;5022868;28;20120;-86
2023/12/06 14:06:21;;;;;;;10.68;6.32;;;;;;;;;;5022479;28;20050;-87
2023/12/06 14:08:47;;;;;;;8.80;6.35;;;;;;;;;;5023974;28;20060;-87
2023/12/06 14:11:13;;;;;;;6.30;4.22;;;;;;;;;;5024639;28;20507;-86
2023/12/06 14:13:39;;;;;;;8.65;5.15;;;;;;;;;;5034153;28;20065;-86
2023/12/06 14:16:07;;;;;;;6.65;5.30;;;;;;;;;;5040703;28;20478;-86
2023/12/06 14:18:33;;;;;;;7.50;5.20;;;;;;;;;;5022348;28;20041;-86
2023/12/06 14:21:00;;;;;;;7.85;5.32;;;;;;;;;;5021646;28;20042;-86
2023/12/06 14:23:27;;;;;;;5.28;3.40;;;;;;;;;;5007416;28;22347;-87
2023/12/06 14:25:53;;;;;;;8.95;5.30;;;;;;;;;;5024323;28;20404;-87